createdAt,value
2024-01-11T00:01:30.239Z,-2.30
2024-01-11T00:03:57.038Z,-2.30
2024-01-11T00:06:24.110Z,-2.30
2024-01-11T00:08:51.040Z,-2.30
2024-01-11T00:11:18.791Z,-2.30
2024-01-11T00:13:45.848Z,-2.30
2024-01-11T00:16:12.738Z,-2.30
2024-01-11T00:18:39.863Z,-2.30
2024-01-11T00:21:06.812Z,-2.30
2024-01-11T00:23:33.688Z,-2.30
2024-01-11T00:26:00.724Z,-2.20
2024-01-11T00:28:27.692Z,-2.20
2024-01-11T00:30:54.675Z,-2.30
2024-01-11T00:33:21.630Z,-2.20
2024-01-11T00:35:48.730Z,-2.30
2024-01-11T00:38:15.700Z,-2.20
2024-01-11T00:40:42.543Z,-2.30
2024-01-11T00:43:09.370Z,-2.30
2024-01-11T00:45:36.363Z,-2.30
2024-01-11T00:48:03.892Z,-2.30
2024-01-11T00:50:31.165Z,-2.40
2024-01-11T00:52:58.304Z,-2.50
2024-01-11T00:55:25.688Z,-2.50
2024-01-11T00:57:52.591Z,-2.50
2024-01-11T01:00:19.412Z,-2.50
2024-01-11T01:02:46.317Z,-2.50
2024-01-11T01:05:13.375Z,-2.60
2024-01-11T01:07:40.701Z,-2.60
2024-01-11T01:10:09.145Z,-2.60
2024-01-11T01:12:35.995Z,-2.60
2024-01-11T01:15:02.842Z,-2.70
2024-01-11T01:17:29.826Z,-2.60
2024-01-11T01:19:56.817Z,-2.60
2024-01-11T01:22:23.646Z,-2.60
2024-01-11T01:24:50.551Z,-2.70
2024-01-11T01:27:17.987Z,-2.70
2024-01-11T01:29:44.788Z,-2.70
2024-01-11T01:32:11.836Z,-2.70
2024-01-11T01:34:39.124Z,-2.70
2024-01-11T01:37:05.984Z,-2.70
2024-01-11T01:39:32.878Z,-2.80
2024-01-11T01:41:59.755Z,-2.80
2024-01-11T01:44:26.687Z,-2.80
2024-01-11T01:46:53.742Z,-2.70
2024-01-11T01:49:23.577Z,-2.80
2024-01-11T01:51:51.769Z,-2.80
2024-01-11T01:54:19.916Z,-2.80
2024-01-11T01:56:46.936Z,-2.90
2024-01-11T01:59:14.933Z,-2.90
2024-01-11T02:01:41.886Z,-3.00
2024-01-11T02:04:08.815Z,-3.00
2024-01-11T02:06:36.069Z,-3.00
2024-01-11T02:09:04.740Z,-3.00
2024-01-11T02:11:31.768Z,-3.00
2024-01-11T02:13:59.410Z,-3.00
2024-01-11T02:16:26.234Z,-3.00
2024-01-11T02:18:53.183Z,-3.00
2024-01-11T02:21:29.575Z,-3.00
2024-01-11T02:24:06.909Z,-3.00
2024-01-11T02:26:34.912Z,-3.00
2024-01-11T02:29:01.968Z,-3.00
2024-01-11T02:31:29.456Z,-3.10
2024-01-11T02:33:57.284Z,-3.10
2024-01-11T02:36:26.315Z,-3.10
2024-01-11T02:38:54.341Z,-3.10
2024-01-11T02:41:22.567Z,-3.10
2024-01-11T02:43:49.920Z,-3.10
2024-01-11T02:46:18.254Z,-3.10
2024-01-11T02:48:45.397Z,-3.10
2024-01-11T02:51:13.437Z,-3.10
2024-01-11T02:53:40.388Z,-3.10
2024-01-11T02:56:07.307Z,-3.10
2024-01-11T02:58:34.198Z,-3.20
2024-01-11T03:01:03.105Z,-3.20
2024-01-11T03:03:30.923Z,-3.20
2024-01-11T03:05:57.912Z,-3.10
2024-01-11T03:08:25.000Z,-3.20
2024-01-11T03:10:51.837Z,-3.10
2024-01-11T03:13:20.070Z,-3.10
2024-01-11T03:15:46.982Z,-3.10
2024-01-11T03:18:14.853Z,-3.10
2024-01-11T03:20:44.967Z,-3.10
2024-01-11T03:23:11.868Z,-3.10
2024-01-11T03:25:38.837Z,-3.10
2024-01-11T03:28:05.755Z,-3.00
2024-01-11T03:30:33.507Z,-3.00
2024-01-11T03:33:00.719Z,-3.10
2024-01-11T03:35:27.808Z,-3.10
2024-01-11T03:37:54.636Z,-3.10
2024-01-11T03:40:21.548Z,-3.10
2024-01-11T03:42:48.315Z,-3.10
2024-01-11T03:45:19.102Z,-3.20
2024-01-11T03:47:46.051Z,-3.20
2024-01-11T03:50:12.989Z,-3.20
2024-01-11T03:52:40.686Z,-3.30
2024-01-11T03:55:08.300Z,-3.30
2024-01-11T03:57:36.116Z,-3.20
2024-01-11T04:00:03.101Z,-3.20
2024-01-11T04:02:31.400Z,-3.20
2024-01-11T04:04:58.383Z,-3.20
2024-01-11T04:07:25.624Z,-3.20
2024-01-11T04:09:52.925Z,-3.20
2024-01-11T04:12:19.748Z,-3.20
2024-01-11T04:14:46.949Z,-3.20
2024-01-11T04:17:13.886Z,-3.20
2024-01-11T04:19:41.052Z,-3.20
2024-01-11T04:22:07.951Z,-3.20
2024-01-11T04:24:34.851Z,-3.20
2024-01-11T04:27:01.707Z,-3.20
2024-01-11T04:29:28.572Z,-3.20
2024-01-11T04:31:55.489Z,-3.30
2024-01-11T04:34:22.335Z,-3.40
2024-01-11T04:36:49.297Z,-3.40
2024-01-11T04:39:16.371Z,-3.40
2024-01-11T04:41:43.344Z,-3.40
2024-01-11T04:44:11.169Z,-3.40
2024-01-11T04:46:38.006Z,-3.40
2024-01-11T04:49:05.015Z,-3.40
2024-01-11T04:51:31.856Z,-3.40
2024-01-11T04:53:58.753Z,-3.40
2024-01-11T04:56:25.633Z,-3.40
2024-01-11T04:58:52.512Z,-3.40
2024-01-11T05:01:19.787Z,-3.50
2024-01-11T05:03:48.410Z,-3.40
2024-01-11T05:06:22.973Z,-3.50
2024-01-11T05:08:53.582Z,-3.50
2024-01-11T05:11:22.524Z,-3.50
2024-01-11T05:13:50.635Z,-3.50
2024-01-11T05:16:37.883Z,-3.50
2024-01-11T05:19:04.809Z,-3.50
2024-01-11T05:21:31.764Z,-3.50
2024-01-11T05:23:58.618Z,-3.50
2024-01-11T05:26:25.563Z,-3.50
2024-01-11T05:28:52.490Z,-3.60
2024-01-11T05:31:19.754Z,-3.60
2024-01-11T05:33:48.153Z,-3.60
2024-01-11T05:36:15.515Z,-3.60
2024-01-11T05:38:42.602Z,-3.60
2024-01-11T05:41:10.160Z,-3.60
2024-01-11T05:43:40.289Z,-3.60
2024-01-11T05:46:08.210Z,-3.60
2024-01-11T05:48:35.163Z,-3.50
2024-01-11T05:51:02.096Z,-3.50
2024-01-11T05:53:29.105Z,-3.50
2024-01-11T05:55:56.076Z,-3.50
2024-01-11T05:58:23.008Z,-3.50
2024-01-11T06:00:49.999Z,-3.40
2024-01-11T06:03:16.960Z,-3.40
2024-01-11T06:05:44.032Z,-3.40
2024-01-11T06:08:11.025Z,-3.40
2024-01-11T06:10:38.583Z,-3.30
2024-01-11T06:13:05.516Z,-3.30
2024-01-11T06:15:33.145Z,-3.30
2024-01-11T06:18:00.284Z,-3.30
2024-01-11T06:20:27.285Z,-3.40
2024-01-11T06:22:54.228Z,-3.40
2024-01-11T06:25:21.236Z,-3.30
2024-01-11T06:27:48.518Z,-3.30
2024-01-11T06:30:15.625Z,-3.30
2024-01-11T06:32:42.847Z,-3.30
2024-01-11T06:35:10.684Z,-3.30
2024-01-11T06:37:37.676Z,-3.30
2024-01-11T06:40:04.931Z,-3.30
2024-01-11T06:42:32.206Z,-3.30
2024-01-11T06:44:59.105Z,-3.40
2024-01-11T06:47:26.537Z,-3.40
2024-01-11T06:49:54.541Z,-3.40
2024-01-11T06:52:21.391Z,-3.50
2024-01-11T06:54:48.214Z,-3.50
2024-01-11T06:57:15.105Z,-3.40
2024-01-11T06:59:42.022Z,-3.40
2024-01-11T07:02:09.078Z,-3.40
2024-01-11T07:04:36.081Z,-3.50
2024-01-11T07:07:05.858Z,-3.50
2024-01-11T07:09:32.959Z,-3.50
2024-01-11T07:11:59.816Z,-3.50
2024-01-11T07:14:26.786Z,-3.50
2024-01-11T07:16:53.672Z,-3.60
2024-01-11T07:19:20.581Z,-3.60
2024-01-11T07:21:47.667Z,-3.60
2024-01-11T07:24:14.592Z,-3.60
2024-01-11T07:26:41.647Z,-3.60
2024-01-11T07:29:08.636Z,-3.60
2024-01-11T07:31:35.534Z,-3.60
2024-01-11T07:34:02.905Z,-3.60
2024-01-11T07:36:30.016Z,-3.60
2024-01-11T07:38:57.612Z,-3.60
2024-01-11T07:41:31.874Z,-3.60
2024-01-11T07:44:00.872Z,-3.60
2024-01-11T07:46:33.629Z,-3.50
2024-01-11T07:49:07.607Z,-3.50
2024-01-11T07:51:38.422Z,-3.40
2024-01-11T07:54:06.276Z,-3.40
2024-01-11T07:56:33.471Z,-3.40
2024-01-11T07:59:00.564Z,-3.40
2024-01-11T08:01:27.652Z,-3.30
2024-01-11T08:03:54.713Z,-3.30
2024-01-11T08:06:21.712Z,-3.20
2024-01-11T08:08:53.457Z,-3.20
2024-01-11T08:11:21.162Z,-3.10
2024-01-11T08:13:48.126Z,-3.00
2024-01-11T08:16:23.250Z,-3.00
2024-01-11T08:18:51.346Z,-2.90
2024-01-11T08:21:18.270Z,-2.90
2024-01-11T08:23:46.642Z,-2.90
2024-01-11T08:26:20.029Z,-2.80
2024-01-11T08:28:47.095Z,-2.70
2024-01-11T08:31:14.185Z,-2.60
2024-01-11T08:33:41.535Z,-2.50
2024-01-11T08:36:08.700Z,-2.30
2024-01-11T08:38:37.142Z,-2.20
2024-01-11T08:41:04.641Z,-2.00
2024-01-11T08:43:31.720Z,-1.90
2024-01-11T08:45:58.683Z,-1.90
2024-01-11T08:48:25.769Z,-1.70
2024-01-11T08:50:52.768Z,-1.50
2024-01-11T08:53:19.687Z,-1.30
2024-01-11T08:55:47.492Z,-1.20
2024-01-11T08:58:14.905Z,-1.10
2024-01-11T09:00:42.030Z,-1.00
2024-01-11T09:03:09.279Z,-0.90
2024-01-11T09:05:36.360Z,-0.80
2024-01-11T09:08:03.582Z,-0.60
2024-01-11T09:10:30.441Z,-0.40
2024-01-11T09:12:57.226Z,-0.10
2024-01-11T09:15:24.078Z,0.10
2024-01-11T09:17:51.780Z,0.20
2024-01-11T09:20:19.916Z,0.20
2024-01-11T09:22:47.194Z,0.30
2024-01-11T09:25:14.090Z,0.30
2024-01-11T09:27:41.294Z,0.40
2024-01-11T09:30:08.678Z,0.60
2024-01-11T09:32:35.770Z,0.80
2024-01-11T09:35:06.053Z,1.10
2024-01-11T09:37:33.471Z,1.30
2024-01-11T09:40:01.915Z,1.50
2024-01-11T09:42:29.365Z,1.80
2024-01-11T09:44:57.815Z,2.20
2024-01-11T09:47:26.139Z,2.80
2024-01-11T09:49:55.422Z,3.00
2024-01-11T09:52:23.839Z,2.90
2024-01-11T09:54:50.849Z,2.80
2024-01-11T09:57:24.943Z,2.80
2024-01-11T09:59:55.546Z,3.10
2024-01-11T10:02:24.291Z,3.60
2024-01-11T10:04:53.273Z,3.90
2024-01-11T10:07:23.982Z,3.90
2024-01-11T10:09:51.592Z,3.70
2024-01-11T10:12:26.486Z,3.50
2024-01-11T10:14:53.927Z,3.10
2024-01-11T10:17:24.315Z,2.80
2024-01-11T10:19:55.973Z,2.50
2024-01-11T10:22:24.982Z,2.20
2024-01-11T10:25:12.942Z,1.90
2024-01-11T10:27:45.458Z,1.80
2024-01-11T10:30:21.149Z,1.60
2024-01-11T10:32:49.080Z,1.50
2024-01-11T10:35:19.098Z,1.30
2024-01-11T10:37:46.434Z,1.20
2024-01-11T10:40:14.301Z,1.10
2024-01-11T10:42:44.185Z,1.10
2024-01-11T10:45:16.684Z,1.10
2024-01-11T10:47:54.565Z,1.00
2024-01-11T10:50:24.129Z,1.00
2024-01-11T10:53:05.749Z,0.90
2024-01-11T10:55:34.899Z,0.90
2024-01-11T10:58:03.001Z,1.00
2024-01-11T11:00:31.099Z,1.00
2024-01-11T11:03:01.104Z,1.10
2024-01-11T11:05:31.491Z,1.10
2024-01-11T11:08:02.166Z,1.20
2024-01-11T11:10:31.441Z,1.20
2024-01-11T11:13:00.832Z,1.30
2024-01-11T11:15:31.043Z,1.30
2024-01-11T11:17:59.014Z,1.40
2024-01-11T11:20:29.115Z,1.40
2024-01-11T11:23:06.624Z,1.40
2024-01-11T11:25:34.063Z,1.50
2024-01-11T11:28:05.033Z,1.40
2024-01-11T11:30:32.620Z,1.40
2024-01-11T11:33:08.331Z,1.50
2024-01-11T11:35:35.357Z,1.50
2024-01-11T11:38:02.985Z,1.60
2024-01-11T11:40:45.020Z,1.60
2024-01-11T11:43:11.873Z,1.70
2024-01-11T11:45:42.155Z,1.70
2024-01-11T11:48:47.349Z,1.70
2024-01-11T11:51:20.534Z,1.70
2024-01-11T11:53:52.059Z,1.80
2024-01-11T11:56:23.281Z,1.80
2024-01-11T11:58:51.068Z,1.90
2024-01-11T12:01:18.981Z,1.90
2024-01-11T12:03:53.139Z,1.90
2024-01-11T12:06:22.030Z,2.00
2024-01-11T12:08:50.024Z,2.10
2024-01-11T12:11:23.475Z,2.10
2024-01-11T12:13:51.222Z,2.20
2024-01-11T12:16:18.162Z,2.20
2024-01-11T12:18:45.306Z,2.20
2024-01-11T12:21:12.404Z,2.30
2024-01-11T12:23:41.151Z,2.30
2024-01-11T12:26:15.963Z,2.30
2024-01-11T12:28:44.974Z,2.40
2024-01-11T12:31:13.905Z,2.50
2024-01-11T12:33:42.301Z,2.50
2024-01-11T12:36:10.186Z,2.60
2024-01-11T12:38:37.667Z,2.70
2024-01-11T12:41:06.249Z,2.70
2024-01-11T12:43:35.172Z,2.80
2024-01-11T12:46:02.363Z,2.80
2024-01-11T12:48:29.454Z,2.90
2024-01-11T12:51:09.873Z,3.00
2024-01-11T12:53:41.919Z,3.00
2024-01-11T12:56:11.887Z,3.10
2024-01-11T12:58:39.575Z,3.10
2024-01-11T13:01:08.963Z,3.10
2024-01-11T13:03:39.783Z,3.00
2024-01-11T13:06:07.223Z,3.00
2024-01-11T13:08:37.630Z,3.10
2024-01-11T13:11:10.754Z,3.00
2024-01-11T13:13:38.077Z,3.10
2024-01-11T13:16:07.168Z,3.10
2024-01-11T13:18:34.339Z,3.00
2024-01-11T13:21:01.390Z,2.90
2024-01-11T13:23:28.437Z,2.90
2024-01-11T13:25:55.590Z,2.80
2024-01-11T13:28:23.570Z,2.80
2024-01-11T13:30:50.607Z,2.90
2024-01-11T13:33:19.316Z,3.00
2024-01-11T13:35:47.275Z,3.00
2024-01-11T13:38:14.419Z,3.00
2024-01-11T13:40:41.921Z,3.00
2024-01-11T13:43:09.124Z,3.00
2024-01-11T13:45:39.494Z,3.00
2024-01-11T13:48:07.347Z,3.00
2024-01-11T13:50:34.694Z,3.00
2024-01-11T13:53:03.148Z,3.10
2024-01-11T13:55:39.560Z,3.00
2024-01-11T13:58:07.513Z,3.00
2024-01-11T14:00:34.762Z,3.00
2024-01-11T14:03:02.391Z,3.10
2024-01-11T14:05:29.680Z,3.00
2024-01-11T14:07:59.548Z,2.90
2024-01-11T14:10:28.173Z,2.90
2024-01-11T14:12:55.448Z,2.90
2024-01-11T14:15:22.768Z,2.90
2024-01-11T14:17:50.222Z,2.80
2024-01-11T14:20:18.170Z,2.80
2024-01-11T14:22:55.614Z,2.60
2024-01-11T14:25:24.065Z,2.60
2024-01-11T14:27:51.412Z,2.50
2024-01-11T14:30:18.408Z,2.50
2024-01-11T14:32:46.750Z,2.50
2024-01-11T14:35:15.138Z,2.50
2024-01-11T14:37:42.306Z,2.50
2024-01-11T14:40:13.163Z,2.50
2024-01-11T14:42:40.644Z,2.50
2024-01-11T14:45:08.217Z,2.50
2024-01-11T14:47:36.211Z,2.40
2024-01-11T14:50:05.296Z,2.40
2024-01-11T14:52:32.716Z,2.40
2024-01-11T14:55:00.373Z,2.30
2024-01-11T14:57:27.254Z,2.30
2024-01-11T14:59:54.360Z,2.20
2024-01-11T15:02:22.009Z,2.20
2024-01-11T15:04:50.299Z,2.20
2024-01-11T15:07:17.221Z,2.20
2024-01-11T15:09:44.334Z,2.10
2024-01-11T15:12:11.292Z,2.10
2024-01-11T15:14:38.319Z,2.10
2024-01-11T15:17:05.518Z,2.10
2024-01-11T15:19:32.997Z,2.10
2024-01-11T15:22:00.512Z,2.10
2024-01-11T15:24:29.180Z,2.10
2024-01-11T15:26:56.537Z,2.10
2024-01-11T15:29:23.664Z,2.10
2024-01-11T15:31:51.439Z,2.10
2024-01-11T15:34:19.465Z,2.10
2024-01-11T15:36:46.760Z,2.00
2024-01-11T15:39:21.796Z,2.00
2024-01-11T15:41:56.567Z,2.00
2024-01-11T15:44:25.287Z,1.90
2024-01-11T15:46:52.264Z,1.90
2024-01-11T15:49:19.355Z,1.90
2024-01-11T15:51:46.335Z,1.90
2024-01-11T15:54:13.226Z,1.80
2024-01-11T15:56:40.204Z,1.80
2024-01-11T15:59:08.506Z,1.80
2024-01-11T16:01:47.007Z,1.80
2024-01-11T16:04:23.866Z,1.80
2024-01-11T16:06:50.988Z,1.80
2024-01-11T16:09:17.928Z,1.70
2024-01-11T16:11:46.160Z,1.70
2024-01-11T16:14:13.165Z,1.70
2024-01-11T16:16:40.862Z,1.70
2024-01-11T16:19:07.894Z,1.70
2024-01-11T16:21:34.827Z,1.70
2024-01-11T16:24:03.363Z,1.70
2024-01-11T16:26:31.138Z,1.70
2024-01-11T16:28:58.534Z,1.70
2024-01-11T16:31:25.863Z,1.70
2024-01-11T16:33:53.689Z,1.70
2024-01-11T16:36:20.962Z,1.70
2024-01-11T16:38:47.911Z,1.70
2024-01-11T16:41:15.213Z,1.70
2024-01-11T16:43:44.341Z,1.70
2024-01-11T16:46:21.871Z,1.70
2024-01-11T16:48:49.855Z,1.70
2024-01-11T16:51:16.928Z,1.60
2024-01-11T16:53:47.408Z,1.60
2024-01-11T16:56:14.610Z,1.70
2024-01-11T16:58:42.716Z,1.70
2024-01-11T17:01:10.725Z,1.70
2024-01-11T17:03:37.616Z,1.70
2024-01-11T17:06:04.795Z,1.70
2024-01-11T17:08:32.231Z,1.70
2024-01-11T17:10:59.599Z,1.70
2024-01-11T17:13:27.303Z,1.70
2024-01-11T17:15:54.223Z,1.70
2024-01-11T17:18:21.279Z,1.70
2024-01-11T17:20:48.441Z,1.70
2024-01-11T17:23:16.279Z,1.70
2024-01-11T17:25:44.185Z,1.70
2024-01-11T17:28:11.111Z,1.70
2024-01-11T17:30:38.636Z,1.70
2024-01-11T17:33:05.811Z,1.70
2024-01-11T17:35:32.762Z,1.70
2024-01-11T17:37:59.634Z,1.80
2024-01-11T17:40:30.496Z,1.80
2024-01-11T17:42:58.132Z,1.80
2024-01-11T17:45:25.999Z,1.90
2024-01-11T17:47:56.281Z,1.80
2024-01-11T17:50:23.852Z,1.90
2024-01-11T17:52:52.044Z,1.90
2024-01-11T17:55:19.472Z,1.90
2024-01-11T17:57:46.619Z,1.90
2024-01-11T18:00:14.425Z,1.90
2024-01-11T18:02:41.499Z,1.90
2024-01-11T18:05:10.153Z,1.90
2024-01-11T18:07:37.519Z,1.90
2024-01-11T18:10:04.723Z,1.90
2024-01-11T18:12:31.582Z,1.90
2024-01-11T18:14:58.734Z,2.00
2024-01-11T18:17:25.718Z,2.00
2024-01-11T18:19:52.891Z,2.00
2024-01-11T18:22:19.956Z,2.10
2024-01-11T18:24:46.849Z,2.10
2024-01-11T18:27:13.787Z,2.10
2024-01-11T18:29:40.801Z,2.10
2024-01-11T18:32:08.106Z,2.10
2024-01-11T18:34:35.185Z,2.20
2024-01-11T18:37:02.000Z,2.20
2024-01-11T18:39:28.848Z,2.20
2024-01-11T18:41:58.730Z,2.30
2024-01-11T18:44:26.816Z,2.30
2024-01-11T18:46:53.930Z,2.30
2024-01-11T18:49:21.110Z,2.30
2024-01-11T18:51:48.075Z,2.30
2024-01-11T18:54:15.171Z,2.30
2024-01-11T18:56:42.703Z,2.30
2024-01-11T18:59:09.675Z,2.30
2024-01-11T19:01:36.674Z,2.30
2024-01-11T19:04:03.912Z,2.30
2024-01-11T19:06:31.543Z,2.30
2024-01-11T19:08:59.127Z,2.30
2024-01-11T19:11:26.909Z,2.30
2024-01-11T19:13:53.788Z,2.30
2024-01-11T19:16:20.605Z,2.30
2024-01-11T19:18:50.030Z,2.30
2024-01-11T19:21:18.819Z,2.30
2024-01-11T19:23:45.858Z,2.30
2024-01-11T19:26:13.473Z,2.30
2024-01-11T19:28:40.385Z,2.30
2024-01-11T19:31:07.851Z,2.40
2024-01-11T19:33:35.926Z,2.40
2024-01-11T19:36:03.591Z,2.40
2024-01-11T19:38:35.349Z,2.50
2024-01-11T19:41:02.530Z,2.50
2024-01-11T19:43:29.953Z,2.60
2024-01-11T19:45:57.604Z,2.60
2024-01-11T19:48:25.706Z,2.60
2024-01-11T19:50:54.471Z,2.60
2024-01-11T19:53:21.742Z,2.60
2024-01-11T19:55:48.710Z,2.60
2024-01-11T19:58:15.935Z,2.70
2024-01-11T20:00:42.972Z,2.70
2024-01-11T20:03:10.290Z,2.70
2024-01-11T20:05:37.724Z,2.70
2024-01-11T20:08:05.586Z,2.70
2024-01-11T20:10:32.793Z,2.70
2024-01-11T20:12:59.806Z,2.70
2024-01-11T20:15:26.705Z,2.70
2024-01-11T20:17:53.738Z,2.70
2024-01-11T20:20:20.682Z,2.70
2024-01-11T20:22:47.479Z,2.70
2024-01-11T20:25:14.344Z,2.70
2024-01-11T20:27:41.194Z,2.80
2024-01-11T20:30:11.847Z,2.80
2024-01-11T20:32:39.524Z,2.80
2024-01-11T20:35:07.036Z,2.80
2024-01-11T20:37:35.172Z,2.80
2024-01-11T20:40:02.049Z,2.80
2024-01-11T20:42:28.964Z,2.80
2024-01-11T20:44:56.227Z,2.80
2024-01-11T20:47:23.919Z,2.80
2024-01-11T20:49:52.019Z,2.80
2024-01-11T20:52:22.307Z,2.80
2024-01-11T20:54:50.944Z,2.80
2024-01-11T20:57:21.199Z,2.80
2024-01-11T20:59:48.268Z,2.80
2024-01-11T21:02:15.221Z,2.90
2024-01-11T21:04:42.183Z,2.80
2024-01-11T21:07:09.099Z,2.90
2024-01-11T21:09:36.785Z,2.90
2024-01-11T21:12:04.258Z,2.90
2024-01-11T21:14:31.400Z,2.90
2024-01-11T21:16:58.421Z,2.90
2024-01-11T21:19:25.707Z,2.90
2024-01-11T21:21:53.978Z,2.90
2024-01-11T21:24:22.723Z,2.90
2024-01-11T21:26:49.961Z,2.90
2024-01-11T21:29:16.911Z,2.80
2024-01-11T21:31:44.620Z,2.80
2024-01-11T21:34:11.681Z,2.80
2024-01-11T21:36:40.202Z,2.80
2024-01-11T21:39:07.113Z,2.90
2024-01-11T21:41:34.088Z,2.90
2024-01-11T21:44:01.249Z,2.90
2024-01-11T21:46:28.665Z,2.90
2024-01-11T21:48:55.848Z,2.90
2024-01-11T21:51:22.910Z,2.90
2024-01-11T21:53:57.699Z,2.90
2024-01-11T21:56:28.122Z,2.90
2024-01-11T21:58:54.948Z,2.90
2024-01-11T22:01:23.171Z,2.90
2024-01-11T22:03:50.376Z,2.90
2024-01-11T22:06:17.864Z,2.90
2024-01-11T22:08:44.750Z,2.90
2024-01-11T22:11:11.711Z,2.90
2024-01-11T22:13:38.850Z,2.90
2024-01-11T22:16:06.910Z,2.90
2024-01-11T22:18:34.393Z,2.90
2024-01-11T22:21:02.950Z,2.90
2024-01-11T22:23:30.366Z,2.90
2024-01-11T22:25:57.242Z,3.00
2024-01-11T22:28:24.046Z,3.00
2024-01-11T22:30:51.672Z,3.00
2024-01-11T22:33:18.870Z,3.00
2024-01-11T22:35:45.961Z,3.00
2024-01-11T22:38:12.783Z,3.00
2024-01-11T22:40:39.866Z,3.00
2024-01-11T22:43:07.124Z,3.00
2024-01-11T22:45:35.218Z,3.00
2024-01-11T22:48:02.194Z,3.00
2024-01-11T22:50:29.741Z,3.00
2024-01-11T22:52:58.572Z,3.00
2024-01-11T22:55:25.530Z,3.10
2024-01-11T22:57:52.670Z,3.10
2024-01-11T23:00:23.322Z,3.10
2024-01-11T23:02:51.222Z,3.10
2024-01-11T23:05:19.433Z,3.10
2024-01-11T23:07:46.827Z,3.10
2024-01-11T23:10:14.221Z,3.20
2024-01-11T23:12:42.184Z,3.10
2024-01-11T23:15:10.241Z,3.10
2024-01-11T23:17:37.399Z,3.10
2024-01-11T23:20:08.008Z,3.20
2024-01-11T23:22:36.087Z,3.20
2024-01-11T23:25:03.210Z,3.10
2024-01-11T23:27:30.199Z,3.20
2024-01-11T23:29:57.301Z,3.20
2024-01-11T23:32:24.439Z,3.10
2024-01-11T23:34:51.364Z,3.10
2024-01-11T23:37:18.290Z,3.10
2024-01-11T23:39:45.184Z,3.10
2024-01-11T23:42:13.286Z,3.10
2024-01-11T23:44:40.622Z,3.10
2024-01-11T23:47:08.564Z,3.10
2024-01-11T23:49:35.713Z,3.10
2024-01-11T23:52:02.591Z,3.10
2024-01-11T23:54:29.539Z,3.10
2024-01-11T23:56:56.491Z,3.10
2024-01-11T23:59:24.242Z,3.10
